createdAt,value
2023-05-22T00:00:13.670Z,75714.09
2023-05-22T00:02:44.121Z,75717.39
2023-05-22T00:05:13.759Z,75719.44
2023-05-22T00:07:43.646Z,75721.09
2023-05-22T00:10:12.280Z,75723.14
2023-05-22T00:12:39.672Z,75725.20
2023-05-22T00:15:08.615Z,75728.08
2023-05-22T00:17:37.323Z,75729.73
2023-05-22T00:20:08.160Z,75731.77
2023-05-22T00:22:36.739Z,75735.08
2023-05-22T00:25:04.730Z,75733.84
2023-05-22T00:27:32.188Z,75733.02
2023-05-22T00:29:59.627Z,75739.20
2023-05-22T00:32:27.322Z,75739.61
2023-05-22T00:34:55.621Z,75743.73
2023-05-22T00:37:26.181Z,75743.31
2023-05-22T00:39:53.533Z,75747.02
2023-05-22T00:42:21.533Z,75746.60
2023-05-22T00:44:49.079Z,75749.89
2023-05-22T00:47:17.023Z,75750.70
2023-05-22T00:49:45.830Z,75752.77
2023-05-22T00:52:13.083Z,75752.77
2023-05-22T00:54:40.272Z,75755.23
2023-05-22T00:57:08.217Z,75756.48
2023-05-22T00:59:36.462Z,75758.95
2023-05-22T01:02:03.876Z,75763.89
2023-05-22T01:04:34.777Z,75765.11
2023-05-22T01:07:03.210Z,75765.94
2023-05-22T01:09:30.886Z,75768.83
2023-05-22T01:12:04.298Z,75769.23
2023-05-22T01:15:09.175Z,75772.94
2023-05-22T01:17:53.632Z,75773.77
2023-05-22T01:20:37.611Z,75778.28
2023-05-22T01:23:29.570Z,75777.46
2023-05-22T01:26:06.051Z,75779.11
2023-05-22T01:28:34.390Z,75784.05
2023-05-22T01:31:08.208Z,75785.69
2023-05-22T01:33:55.206Z,75792.27
2023-05-22T01:36:28.520Z,75793.10
2023-05-22T01:38:57.312Z,75795.16
2023-05-22T01:41:26.143Z,75796.80
2023-05-22T01:43:53.459Z,75797.21
2023-05-22T01:46:26.707Z,75798.45
2023-05-22T01:48:55.221Z,75800.50
2023-05-22T01:51:31.901Z,75799.27
2023-05-22T01:54:07.796Z,75803.38
2023-05-22T01:56:47.133Z,75804.62
2023-05-22T01:59:48.711Z,75805.85
2023-05-22T02:02:19.647Z,75806.68
2023-05-22T02:04:59.461Z,75805.86
2023-05-22T02:07:27.962Z,75806.68
2023-05-22T02:09:58.078Z,75809.14
2023-05-22T02:12:25.504Z,75807.09
2023-05-22T02:14:56.008Z,75802.56
2023-05-22T02:17:23.579Z,75803.38
2023-05-22T02:19:50.971Z,75802.55
2023-05-22T02:22:19.340Z,75803.38
2023-05-22T02:24:47.691Z,75799.67
2023-05-22T02:27:15.502Z,75800.09
2023-05-22T02:29:42.799Z,75803.38
2023-05-22T02:32:11.247Z,75800.50
2023-05-22T02:34:39.611Z,75795.16
2023-05-22T02:37:06.966Z,75792.69
2023-05-22T02:39:35.193Z,75788.98
2023-05-22T02:42:03.889Z,75786.52
2023-05-22T02:44:31.236Z,75784.46
2023-05-22T02:46:59.392Z,75781.17
2023-05-22T02:49:28.225Z,75776.23
2023-05-22T02:51:56.666Z,75776.23
2023-05-22T02:54:25.460Z,75772.52
2023-05-22T02:56:52.929Z,75772.11
2023-05-22T02:59:20.200Z,75769.64
2023-05-22T03:04:18.146Z,75756.07
2023-05-22T03:06:52.195Z,75756.06
2023-05-22T03:09:21.505Z,75753.59
2023-05-22T03:11:50.420Z,75751.13
2023-05-22T03:14:17.899Z,75744.55
2023-05-22T03:16:45.647Z,75736.30
2023-05-22T03:19:16.828Z,75726.43
2023-05-22T03:21:44.582Z,75720.27
2023-05-22T03:24:14.838Z,75717.80
2023-05-22T03:26:43.588Z,75712.86
2023-05-22T03:29:15.172Z,75705.86
2023-05-22T03:31:42.585Z,75698.05
2023-05-22T03:34:14.649Z,75692.28
2023-05-22T03:36:45.354Z,75683.23
2023-05-22T03:39:13.097Z,75677.89
2023-05-22T03:41:45.848Z,75667.60
2023-05-22T03:44:13.316Z,75658.13
2023-05-22T03:46:40.428Z,75648.66
2023-05-22T03:49:07.547Z,75636.73
2023-05-22T03:51:37.783Z,75626.86
2023-05-22T03:54:05.455Z,75616.57
2023-05-22T03:56:34.733Z,75605.87
2023-05-22T03:59:03.578Z,75595.59
2023-05-22T04:01:31.133Z,75582.83
2023-05-22T04:04:05.440Z,75568.02
2023-05-22T04:06:33.937Z,75552.39
2023-05-22T04:09:01.124Z,75540.45
2023-05-22T04:11:29.998Z,75524.80
2023-05-22T04:14:02.748Z,75509.99
2023-05-22T04:16:30.509Z,75495.60
2023-05-22T04:18:58.501Z,75481.61
2023-05-22T04:21:26.091Z,75465.97
2023-05-22T04:23:53.740Z,75445.81
2023-05-22T04:26:20.864Z,75428.11
2023-05-22T04:28:49.042Z,75417.01
2023-05-22T04:31:16.736Z,75398.09
2023-05-22T04:33:48.095Z,75380.39
2023-05-22T04:36:17.394Z,75360.23
2023-05-22T04:38:47.136Z,75340.48
2023-05-22T04:41:18.636Z,75324.43
2023-05-22T04:43:48.162Z,75308.80
2023-05-22T04:46:19.224Z,75298.10
2023-05-22T04:48:47.673Z,75280.81
2023-05-22T04:51:19.514Z,75262.72
2023-05-22T04:53:49.253Z,75249.55
2023-05-22T04:56:24.324Z,75233.50
2023-05-22T04:58:59.556Z,75211.70
2023-05-22T05:01:29.054Z,75198.53
2023-05-22T05:04:00.924Z,75182.48
2023-05-22T05:06:28.697Z,75161.50
2023-05-22T05:08:56.248Z,75147.92
2023-05-22T05:11:25.576Z,75131.88
2023-05-22T05:13:53.158Z,75117.89
2023-05-22T05:16:24.631Z,75102.25
2023-05-22T05:18:54.405Z,75091.55
2023-05-22T05:21:43.687Z,75075.52
2023-05-22T05:24:12.313Z,75060.30
2023-05-22T05:26:41.011Z,75045.07
2023-05-22T05:29:12.832Z,75024.91
2023-05-22T05:31:49.834Z,75000.64
2023-05-22T05:34:34.038Z,74976.36
2023-05-22T05:37:10.030Z,74952.92
2023-05-22T05:39:40.409Z,74926.58
2023-05-22T05:42:09.801Z,74905.18
2023-05-22T05:44:37.862Z,74885.44
2023-05-22T05:47:06.763Z,74861.98
2023-05-22T05:49:35.941Z,74840.60
2023-05-22T05:52:07.505Z,74820.44
2023-05-22T05:54:36.342Z,74790.41
2023-05-22T05:57:10.776Z,74766.13
2023-05-22T05:59:39.410Z,74738.58
2023-05-22T06:02:32.180Z,74708.54
2023-05-22T06:05:03.515Z,74676.87
2023-05-22T06:07:37.819Z,74655.06
2023-05-22T06:10:11.683Z,74635.32
2023-05-22T06:13:06.162Z,74609.41
2023-05-22T06:15:38.541Z,74577.31
2023-05-22T06:18:06.528Z,74541.11
2023-05-22T06:20:33.846Z,74514.78
2023-05-22T06:23:02.931Z,74490.93
2023-05-22T06:25:30.348Z,74460.89
2023-05-22T06:28:01.576Z,74412.35
2023-05-22T06:33:06.822Z,74337.90
2023-05-22T06:35:36.665Z,74300.05
2023-05-22T06:38:04.023Z,74264.27
2023-05-22T06:40:31.620Z,74233.02
2023-05-22T06:43:08.918Z,74211.62
2023-05-22T06:45:47.433Z,74192.29
2023-05-22T06:48:16.787Z,74176.24
2023-05-22T06:50:58.787Z,74163.09
2023-05-22T06:53:28.511Z,74149.10
2023-05-22T06:55:56.338Z,74135.11
2023-05-22T06:58:41.119Z,74109.61
2023-05-22T07:01:09.683Z,74091.52
2023-05-22T07:03:43.068Z,74063.13
2023-05-22T07:06:50.733Z,74033.52
2023-05-22T07:09:19.614Z,74017.48
2023-05-22T07:11:50.082Z,74010.48
2023-05-22T07:14:17.661Z,74019.13
2023-05-22T07:16:48.524Z,74017.48
2023-05-22T07:19:19.449Z,74014.19
2023-05-22T07:21:46.948Z,74011.30
2023-05-22T07:24:17.881Z,73977.58
2023-05-22T07:26:49.000Z,73939.33
2023-05-22T07:29:18.169Z,73905.20
2023-05-22T07:31:48.126Z,73859.95
2023-05-22T07:34:15.974Z,73837.33
2023-05-22T07:36:44.080Z,73846.37
2023-05-22T07:39:11.390Z,73840.20
2023-05-22T07:41:51.245Z,73831.98
2023-05-22T07:44:28.024Z,73845.96
2023-05-22T07:46:55.717Z,73844.31
2023-05-22T07:49:23.814Z,73842.27
2023-05-22T07:51:51.641Z,73830.74
2023-05-22T07:54:19.296Z,73808.13
2023-05-22T07:56:49.099Z,73773.98
2023-05-22T07:59:19.266Z,73755.06
2023-05-22T08:01:47.561Z,73708.17
2023-05-22T08:04:16.344Z,73651.42
2023-05-22T08:06:44.173Z,73595.91
2023-05-22T08:09:11.441Z,73545.32
2023-05-22T08:11:41.690Z,73517.77
2023-05-22T08:14:09.072Z,73492.67
2023-05-22T08:16:36.477Z,73470.88
2023-05-22T08:19:06.666Z,73462.65
2023-05-22T08:21:33.978Z,73433.86
2023-05-22T08:24:03.903Z,73407.55
2023-05-22T08:26:33.492Z,73380.81
2023-05-22T08:29:00.693Z,73340.92
2023-05-22T08:31:29.494Z,73329.41
2023-05-22T08:34:03.378Z,73322.83
2023-05-22T08:36:33.420Z,73289.93
2023-05-22T08:39:01.010Z,73272.66
2023-05-22T08:41:29.514Z,73292.80
2023-05-22T08:43:56.547Z,73310.08
2023-05-22T08:46:25.706Z,73300.63
2023-05-22T08:48:58.613Z,73259.91
2023-05-22T08:51:28.769Z,73224.55
2023-05-22T08:53:55.994Z,73201.92
2023-05-22T08:56:24.819Z,73187.11
2023-05-22T08:58:53.012Z,73194.11
2023-05-22T09:01:20.565Z,73200.28
2023-05-22T09:03:50.728Z,73212.20
2023-05-22T09:06:18.255Z,73242.64
2023-05-22T09:08:45.655Z,73269.77
2023-05-22T09:11:15.643Z,73266.90
2023-05-22T09:13:44.317Z,73234.41
2023-05-22T09:16:12.472Z,73195.77
2023-05-22T09:18:45.845Z,73171.49
2023-05-22T09:21:28.810Z,73152.98
2023-05-22T09:24:00.822Z,73188.35
2023-05-22T09:26:28.935Z,73236.06
2023-05-22T09:28:58.240Z,73274.70
2023-05-22T09:31:25.616Z,73272.66
2023-05-22T09:33:53.771Z,73254.98
2023-05-22T09:36:21.819Z,73238.94
2023-05-22T09:38:52.058Z,73200.70
2023-05-22T09:41:22.544Z,73200.69
2023-05-22T09:43:51.046Z,73215.49
2023-05-22T09:46:18.626Z,73252.51
2023-05-22T09:48:51.617Z,73252.09
2023-05-22T09:51:26.028Z,73201.10
2023-05-22T09:53:56.087Z,73132.02
2023-05-22T09:56:37.924Z,73064.58
2023-05-22T09:59:08.456Z,73023.86
2023-05-22T10:01:38.234Z,73045.25
2023-05-22T10:04:06.148Z,73095.00
2023-05-22T10:06:36.489Z,73115.56
2023-05-22T10:09:04.931Z,73145.18
2023-05-22T10:11:32.887Z,73189.59
2023-05-22T10:14:06.078Z,73231.13
2023-05-22T10:16:35.964Z,73246.34
2023-05-22T10:19:04.654Z,73260.32
2023-05-22T10:21:32.726Z,73333.94
2023-05-22T10:24:00.782Z,73370.12
2023-05-22T10:26:28.931Z,73322.00
2023-05-22T10:29:03.055Z,73251.68
2023-05-22T10:31:33.922Z,73241.40
2023-05-22T10:34:17.954Z,73255.39
2023-05-22T10:37:12.967Z,73273.89
2023-05-22T10:40:03.118Z,73230.70
2023-05-22T10:42:33.441Z,73155.87
2023-05-22T10:45:08.971Z,73084.31
2023-05-22T10:47:37.483Z,73016.88
2023-05-22T10:50:09.263Z,72958.89
2023-05-22T10:52:38.502Z,72914.48
2023-05-22T10:55:16.962Z,72893.92
2023-05-22T10:57:46.413Z,72870.48
2023-05-22T11:00:15.172Z,72852.81
2023-05-22T11:02:50.843Z,72844.58
2023-05-22T11:05:34.013Z,72863.08
2023-05-22T11:08:34.833Z,72921.89
2023-05-22T11:11:12.102Z,72953.14
2023-05-22T11:13:40.783Z,72962.19
2023-05-22T11:16:09.815Z,72961.77
2023-05-22T11:18:37.181Z,72948.61
2023-05-22T11:21:07.856Z,72964.24
2023-05-22T11:23:39.303Z,73004.95
2023-05-22T11:26:23.270Z,73038.26
2023-05-22T11:28:53.170Z,73136.13
2023-05-22T11:31:22.702Z,73231.12
2023-05-22T11:33:50.896Z,73291.58
2023-05-22T11:36:19.376Z,73324.48
2023-05-22T11:38:46.567Z,73347.09
2023-05-22T11:41:14.722Z,73401.79
2023-05-22T11:43:44.668Z,73478.70
2023-05-22T11:46:26.429Z,73526.81
2023-05-22T11:48:56.211Z,73576.16
2023-05-22T11:51:27.837Z,73647.73
2023-05-22T11:53:59.145Z,73684.73
2023-05-22T11:56:26.594Z,73709.41
2023-05-22T11:58:59.929Z,73719.28
2023-05-22T12:01:29.726Z,73722.16
2023-05-22T12:03:56.931Z,73748.48
2023-05-22T12:06:24.046Z,73783.86
2023-05-22T12:08:51.093Z,73825.80
2023-05-22T12:11:18.391Z,73884.21
2023-05-22T12:13:45.437Z,73920.82
2023-05-22T12:16:22.945Z,73937.27
2023-05-22T12:18:57.906Z,73935.22
2023-05-22T12:21:27.384Z,73933.58
2023-05-22T12:23:54.642Z,73950.44
2023-05-22T12:26:21.668Z,73977.98
2023-05-22T12:28:55.289Z,73993.63
2023-05-22T12:31:22.513Z,74003.90
2023-05-22T12:33:53.312Z,74010.48
2023-05-22T12:36:21.281Z,74010.48
2023-05-22T12:38:49.013Z,74003.08
2023-05-22T12:41:18.216Z,73993.62
2023-05-22T12:43:49.312Z,73983.34
2023-05-22T12:46:17.891Z,73964.41
2023-05-22T12:48:45.277Z,73967.71
2023-05-22T12:51:13.878Z,73973.88
2023-05-22T12:53:40.831Z,73965.23
2023-05-22T12:56:07.737Z,73950.44
2023-05-22T12:58:34.608Z,73937.68
2023-05-22T13:01:04.173Z,73939.73
2023-05-22T13:03:32.151Z,73957.02
2023-05-22T13:06:00.642Z,73966.89
2023-05-22T13:08:31.402Z,73973.47
2023-05-22T13:10:58.197Z,73982.92
2023-05-22T13:13:26.648Z,73984.16
2023-05-22T13:15:53.613Z,73980.45
2023-05-22T13:18:22.364Z,73980.05
2023-05-22T13:20:51.752Z,74000.20
2023-05-22T13:23:18.977Z,74021.59
2023-05-22T13:25:46.557Z,74032.27
2023-05-22T13:28:18.825Z,74040.92
2023-05-22T13:30:46.187Z,74040.09
2023-05-22T13:33:15.182Z,74035.16
2023-05-22T13:35:42.747Z,74032.28
2023-05-22T13:38:11.626Z,74029.40
2023-05-22T13:40:39.158Z,74023.64
2023-05-22T13:43:06.066Z,74024.47
2023-05-22T13:45:33.192Z,74038.86
2023-05-22T13:48:00.435Z,74042.57
2023-05-22T13:50:31.794Z,74043.39
2023-05-22T13:52:59.265Z,74046.68
2023-05-22T13:55:28.082Z,74060.26
2023-05-22T13:57:55.257Z,74069.71
2023-05-22T14:00:24.779Z,74080.00
2023-05-22T14:02:52.327Z,74087.40
2023-05-22T14:05:33.958Z,74087.40
2023-05-22T14:08:05.310Z,74088.22
2023-05-22T14:10:36.084Z,74091.10
2023-05-22T14:13:04.343Z,74097.27
2023-05-22T14:15:35.256Z,74110.85
2023-05-22T14:18:06.121Z,74120.30
2023-05-22T14:20:37.692Z,74130.59
2023-05-22T14:23:06.128Z,74131.82
2023-05-22T14:25:35.020Z,74124.02
2023-05-22T14:28:03.355Z,74118.25
2023-05-22T14:30:30.563Z,74111.27
2023-05-22T14:32:57.901Z,74106.73
2023-05-22T14:35:25.087Z,74102.62
2023-05-22T14:37:53.072Z,74110.02
2023-05-22T14:40:20.942Z,74117.02
2023-05-22T14:42:53.286Z,74121.13
2023-05-22T14:45:24.742Z,74120.72
2023-05-22T14:47:52.189Z,74125.23
2023-05-22T14:50:21.922Z,74126.89
2023-05-22T14:52:50.009Z,74130.59
2023-05-22T14:55:18.541Z,74134.70
2023-05-22T14:57:48.838Z,74137.98
2023-05-22T15:00:19.168Z,74135.52
2023-05-22T15:02:47.602Z,74135.11
2023-05-22T15:05:18.643Z,74135.11
2023-05-22T15:07:47.897Z,74135.11
2023-05-22T15:10:16.941Z,74139.64
2023-05-22T15:12:44.739Z,74139.64
2023-05-22T15:15:14.321Z,74144.58
2023-05-22T15:17:42.811Z,74152.80
2023-05-22T15:20:17.449Z,74156.09
2023-05-22T15:22:45.207Z,74162.67
2023-05-22T15:25:14.300Z,74169.25
2023-05-22T15:27:42.833Z,74175.84
2023-05-22T15:30:15.812Z,74178.71
2023-05-22T15:32:44.312Z,74175.84
2023-05-22T15:35:15.462Z,74175.42
2023-05-22T15:37:42.601Z,74174.60
2023-05-22T15:40:15.884Z,74181.18
2023-05-22T15:42:43.248Z,74189.41
2023-05-22T15:45:10.329Z,74196.81
2023-05-22T15:47:39.501Z,74202.98
2023-05-22T15:50:07.090Z,74210.80
2023-05-22T15:52:34.161Z,74213.27
2023-05-22T15:55:01.191Z,74219.85
2023-05-22T15:57:28.419Z,74226.02
2023-05-22T15:59:56.157Z,74227.25
2023-05-22T16:02:23.682Z,74233.83
2023-05-22T16:04:51.496Z,74237.13
2023-05-22T16:07:19.598Z,74242.88
2023-05-22T16:09:46.654Z,74246.59
2023-05-22T16:12:14.597Z,74253.16
2023-05-22T16:14:42.280Z,74262.63
2023-05-22T16:17:09.222Z,74269.62
2023-05-22T16:19:37.670Z,74277.44
2023-05-22T16:22:05.196Z,74279.91
2023-05-22T16:24:32.100Z,74283.61
2023-05-22T16:27:00.525Z,74291.83
2023-05-22T16:29:28.060Z,74302.52
2023-05-22T16:31:57.038Z,74308.69
2023-05-22T16:34:24.699Z,74314.05
2023-05-22T16:36:52.150Z,74319.80
2023-05-22T16:39:19.911Z,74329.67
2023-05-22T16:41:47.162Z,74337.08
2023-05-22T16:44:14.177Z,74342.83
2023-05-22T16:46:42.823Z,74347.77
2023-05-22T16:49:10.922Z,74354.77
2023-05-22T16:51:39.354Z,74360.52
2023-05-22T16:54:06.327Z,74366.29
2023-05-22T16:56:34.628Z,74372.45
2023-05-22T16:59:01.845Z,74381.09
2023-05-22T17:01:29.272Z,74388.49
2023-05-22T17:03:57.575Z,74397.13
2023-05-22T17:06:27.096Z,74407.02
2023-05-22T17:08:53.931Z,74416.48
2023-05-22T17:11:24.649Z,74426.34
2023-05-22T17:13:54.588Z,74434.57
2023-05-22T17:16:24.392Z,74439.91
2023-05-22T17:19:00.054Z,74448.14
2023-05-22T17:21:27.470Z,74457.61
2023-05-22T17:23:59.874Z,74462.54
2023-05-22T17:27:04.288Z,74470.77
2023-05-22T17:29:37.721Z,74481.88
2023-05-22T17:32:09.134Z,74486.41
2023-05-22T17:34:36.605Z,74491.34
2023-05-22T17:37:04.234Z,74502.86
2023-05-22T17:39:35.357Z,74509.85
2023-05-22T17:42:02.288Z,74517.25
2023-05-22T17:44:30.899Z,74525.08
2023-05-22T17:46:58.670Z,74530.41
2023-05-22T17:49:26.428Z,74536.59
2023-05-22T17:51:58.908Z,74539.05
2023-05-22T17:54:41.123Z,74544.81
2023-05-22T17:57:08.663Z,74550.17
2023-05-22T17:59:39.238Z,74555.92
2023-05-22T18:02:10.362Z,74562.09
2023-05-22T18:04:37.890Z,74571.14
2023-05-22T18:07:06.363Z,74579.38
2023-05-22T18:09:33.382Z,74583.90
2023-05-22T18:12:03.034Z,74588.84
2023-05-22T18:14:36.737Z,74596.64
2023-05-22T18:17:04.188Z,74608.16
2023-05-22T18:19:33.460Z,74617.63
2023-05-22T18:22:05.241Z,74625.45
2023-05-22T18:24:36.115Z,74635.73
2023-05-22T18:27:04.896Z,74642.31
2023-05-22T18:29:32.693Z,74647.66
2023-05-22T18:32:00.196Z,74653.83
2023-05-22T18:34:27.297Z,74658.77
2023-05-22T18:36:59.233Z,74666.58
2023-05-22T18:39:27.717Z,74670.69
2023-05-22T18:41:56.469Z,74671.52
2023-05-22T18:44:28.446Z,74676.45
2023-05-22T18:46:59.252Z,74687.15
2023-05-22T18:49:26.801Z,74691.67
2023-05-22T18:51:57.909Z,74698.26
2023-05-22T18:54:25.464Z,74703.20
2023-05-22T18:56:55.958Z,74709.78
2023-05-22T18:59:29.144Z,74713.89
2023-05-22T19:01:59.476Z,74715.55
2023-05-22T19:04:26.549Z,74716.77
2023-05-22T19:06:56.782Z,74720.47
2023-05-22T19:09:28.405Z,74724.59
2023-05-22T19:11:55.863Z,74728.70
2023-05-22T19:14:22.978Z,74734.87
2023-05-22T19:16:50.424Z,74742.27
2023-05-22T19:19:17.776Z,74750.09
2023-05-22T19:21:45.590Z,74755.85
2023-05-22T19:24:12.728Z,74769.02
2023-05-22T19:26:39.913Z,74773.95
2023-05-22T19:29:07.242Z,74778.89
2023-05-22T19:31:35.975Z,74785.89
2023-05-22T19:34:04.455Z,74788.77
2023-05-22T19:36:33.480Z,74796.17
2023-05-22T19:39:00.627Z,74799.88
2023-05-22T19:41:27.596Z,74802.34
2023-05-22T19:43:54.752Z,74809.73
2023-05-22T19:46:22.683Z,74815.09
2023-05-22T19:48:49.969Z,74819.20
2023-05-22T19:51:16.875Z,74823.32
2023-05-22T19:53:46.034Z,74828.26
2023-05-22T19:56:13.076Z,74835.25
2023-05-22T19:58:40.126Z,74841.02
2023-05-22T20:01:07.057Z,74844.30
2023-05-22T20:03:34.555Z,74850.88
2023-05-22T20:06:01.544Z,74856.64
2023-05-22T20:08:28.532Z,74864.05
2023-05-22T20:10:55.513Z,74869.81
2023-05-22T20:13:23.026Z,74874.74
2023-05-22T20:15:52.700Z,74878.05
2023-05-22T20:18:22.302Z,74880.91
2023-05-22T20:20:49.616Z,74887.09
2023-05-22T20:23:16.592Z,74891.20
2023-05-22T20:25:44.553Z,74898.20
2023-05-22T20:28:14.934Z,74898.61
2023-05-22T20:30:41.923Z,74905.19
2023-05-22T20:33:11.342Z,74904.36
2023-05-22T20:35:38.756Z,74908.07
2023-05-22T20:38:08.287Z,74910.54
2023-05-22T20:40:41.793Z,74915.89
2023-05-22T20:43:09.587Z,74923.29
2023-05-22T20:45:36.943Z,74929.46
2023-05-22T20:48:04.127Z,74929.05
2023-05-22T20:50:32.300Z,74931.52
2023-05-22T20:53:02.018Z,74938.92
2023-05-22T20:55:29.134Z,74942.63
2023-05-22T20:57:56.349Z,74949.20
2023-05-22T21:00:25.591Z,74952.09
2023-05-22T21:02:52.612Z,74953.33
2023-05-22T21:05:19.632Z,74959.50
2023-05-22T21:07:47.117Z,74965.25
2023-05-22T21:10:14.086Z,74966.48
2023-05-22T21:12:41.925Z,74968.13
2023-05-22T21:15:11.930Z,74969.37
2023-05-22T21:17:39.704Z,74973.48
2023-05-22T21:20:07.687Z,74975.95
2023-05-22T21:22:34.758Z,74979.23
2023-05-22T21:25:03.339Z,74982.54
2023-05-22T21:27:30.574Z,74985.83
2023-05-22T21:29:58.584Z,74992.82
2023-05-22T21:32:25.724Z,74996.94
2023-05-22T21:34:52.850Z,75005.58
2023-05-22T21:37:20.279Z,75008.05
2023-05-22T21:39:47.245Z,75012.16
2023-05-22T21:42:16.313Z,75015.45
2023-05-22T21:44:43.574Z,75015.03
2023-05-22T21:47:10.849Z,75020.80
2023-05-22T21:49:39.592Z,75026.14
2023-05-22T21:52:07.034Z,75034.79
2023-05-22T21:54:34.980Z,75035.19
2023-05-22T21:57:01.827Z,75039.31
2023-05-22T21:59:28.920Z,75043.43
2023-05-22T22:01:57.478Z,75047.54
2023-05-22T22:04:24.523Z,75052.48
2023-05-22T22:06:51.386Z,75055.36
2023-05-22T22:09:18.205Z,75058.64
2023-05-22T22:11:45.326Z,75066.88
2023-05-22T22:14:12.877Z,75073.05
2023-05-22T22:16:40.648Z,75075.92
2023-05-22T22:19:08.973Z,75080.86
2023-05-22T22:21:36.570Z,75087.85
2023-05-22T22:24:04.311Z,75092.39
2023-05-22T22:26:31.842Z,75100.20
2023-05-22T22:28:59.151Z,75105.14
2023-05-22T22:31:26.628Z,75108.84
2023-05-22T22:33:54.301Z,75112.54
2023-05-22T22:36:23.506Z,75117.06
2023-05-22T22:38:50.563Z,75117.08
2023-05-22T22:41:20.891Z,75119.95
2023-05-22T22:43:48.547Z,75124.06
2023-05-22T22:46:15.466Z,75127.35
2023-05-22T22:48:44.134Z,75128.99
2023-05-22T22:51:12.781Z,75129.83
2023-05-22T22:53:40.606Z,75129.41
2023-05-22T22:56:07.803Z,75128.17
2023-05-22T22:58:36.020Z,75129.41
2023-05-22T23:01:05.092Z,75131.05
2023-05-22T23:03:33.834Z,75129.83
2023-05-22T23:06:02.234Z,75131.88
2023-05-22T23:08:29.435Z,75130.65
2023-05-22T23:10:56.700Z,75131.06
2023-05-22T23:13:24.414Z,75132.70
2023-05-22T23:15:51.537Z,75136.82
2023-05-22T23:18:18.872Z,75138.46
2023-05-22T23:20:46.626Z,75140.11
2023-05-22T23:23:14.803Z,75140.52
2023-05-22T23:25:41.950Z,75140.10
2023-05-22T23:28:09.408Z,75140.10
2023-05-22T23:30:36.534Z,75145.05
2023-05-22T23:33:05.652Z,75145.87
2023-05-22T23:35:32.703Z,75147.52
2023-05-22T23:38:00.854Z,75146.69
2023-05-22T23:40:28.669Z,75149.58
2023-05-22T23:42:55.813Z,75151.22
2023-05-22T23:45:22.919Z,75155.34
2023-05-22T23:47:49.924Z,75156.16
2023-05-22T23:50:17.590Z,75156.16
2023-05-22T23:52:47.950Z,75160.27
2023-05-22T23:55:15.242Z,75162.33
2023-05-22T23:57:42.283Z,75162.33
